Terminal Aerodrome Forecast
Issued by NWS Medford, OR

Home | Current Version | Previous Version | Text Only | Print | Product List | Glossary On
Versions: 1 2 3 4 5 6 7 8 9 10 11 12 13 14 15 16 17 18
000
FTUS46 KMFR 240520
TAFMFR
TAF
KMFR 240520Z 2406/2506 VRB03KT P6SM BKN050
     FM240700 VRB03KT P6SM OVC040
     FM242200 32010KT P6SM SCT040
     FM250300 VRB03KT P6SM SCT040=

USA.gov is the U.S. government's official web portal to all federal, state and local government web resources and services.